sensor_id;sensor_type;location;lat;lon;timestamp;P1;durP1;ratioP1;P2;durP2;ratioP2
12958;SDS011;6544;51.666;6.634;2022-12-11T00:00:10;55.60;;;23.23;;
12958;SDS011;6544;51.666;6.634;2022-12-11T00:02:41;55.07;;;24.20;;
12958;SDS011;6544;51.666;6.634;2022-12-11T00:05:08;54.47;;;24.53;;
12958;SDS011;6544;51.666;6.634;2022-12-11T00:07:35;53.27;;;24.50;;
12958;SDS011;6544;51.666;6.634;2022-12-11T00:10:02;48.47;;;23.60;;
12958;SDS011;6544;51.666;6.634;2022-12-11T00:12:30;51.93;;;24.23;;
12958;SDS011;6544;51.666;6.634;2022-12-11T00:14:57;56.13;;;24.73;;
12958;SDS011;6544;51.666;6.634;2022-12-11T00:17:24;58.47;;;24.97;;
12958;SDS011;6544;51.666;6.634;2022-12-11T00:19:52;57.27;;;25.03;;
12958;SDS011;6544;51.666;6.634;2022-12-11T00:22:19;62.37;;;26.10;;
12958;SDS011;6544;51.666;6.634;2022-12-11T00:24:46;60.27;;;26.03;;
12958;SDS011;6544;51.666;6.634;2022-12-11T00:27:13;63.50;;;26.97;;
12958;SDS011;6544;51.666;6.634;2022-12-11T00:29:40;55.77;;;25.77;;
12958;SDS011;6544;51.666;6.634;2022-12-11T00:32:07;59.33;;;25.77;;
12958;SDS011;6544;51.666;6.634;2022-12-11T00:34:34;60.50;;;25.27;;
12958;SDS011;6544;51.666;6.634;2022-12-11T00:37:02;64.53;;;27.63;;
12958;SDS011;6544;51.666;6.634;2022-12-11T00:39:29;64.93;;;26.67;;
12958;SDS011;6544;51.666;6.634;2022-12-11T00:41:56;66.03;;;27.73;;
12958;SDS011;6544;51.666;6.634;2022-12-11T00:44:23;63.90;;;27.07;;
12958;SDS011;6544;51.666;6.634;2022-12-11T00:46:50;65.20;;;27.00;;
12958;SDS011;6544;51.666;6.634;2022-12-11T00:49:17;57.43;;;25.93;;
12958;SDS011;6544;51.666;6.634;2022-12-11T00:51:44;67.27;;;27.13;;
12958;SDS011;6544;51.666;6.634;2022-12-11T00:54:12;65.97;;;27.00;;
12958;SDS011;6544;51.666;6.634;2022-12-11T00:56:39;69.53;;;27.00;;
12958;SDS011;6544;51.666;6.634;2022-12-11T00:59:06;69.03;;;27.97;;
12958;SDS011;6544;51.666;6.634;2022-12-11T01:01:33;71.07;;;27.90;;
12958;SDS011;6544;51.666;6.634;2022-12-11T01:04:00;65.93;;;27.40;;
12958;SDS011;6544;51.666;6.634;2022-12-11T01:06:27;73.30;;;27.77;;
12958;SDS011;6544;51.666;6.634;2022-12-11T01:08:55;68.03;;;28.33;;
12958;SDS011;6544;51.666;6.634;2022-12-11T01:11:38;67.13;;;27.43;;
12958;SDS011;6544;51.666;6.634;2022-12-11T01:14:06;59.17;;;24.37;;
12958;SDS011;6544;51.666;6.634;2022-12-11T01:16:34;63.43;;;25.80;;
12958;SDS011;6544;51.666;6.634;2022-12-11T01:19:01;61.00;;;24.60;;
12958;SDS011;6544;51.666;6.634;2022-12-11T01:21:28;59.40;;;25.80;;
12958;SDS011;6544;51.666;6.634;2022-12-11T01:23:55;56.53;;;25.60;;
12958;SDS011;6544;51.666;6.634;2022-12-11T01:26:22;54.80;;;24.33;;
12958;SDS011;6544;51.666;6.634;2022-12-11T01:28:51;55.70;;;24.23;;
12958;SDS011;6544;51.666;6.634;2022-12-11T01:31:18;57.60;;;25.30;;
12958;SDS011;6544;51.666;6.634;2022-12-11T01:33:47;58.03;;;24.90;;
12958;SDS011;6544;51.666;6.634;2022-12-11T01:36:15;51.30;;;23.20;;
12958;SDS011;6544;51.666;6.634;2022-12-11T01:38:43;54.90;;;23.83;;
12958;SDS011;6544;51.666;6.634;2022-12-11T01:41:10;50.67;;;22.73;;
12958;SDS011;6544;51.666;6.634;2022-12-11T01:46:28;54.57;;;23.77;;
12958;SDS011;6544;51.666;6.634;2022-12-11T01:48:57;52.90;;;23.50;;
12958;SDS011;6544;51.666;6.634;2022-12-11T01:51:25;54.33;;;23.73;;
12958;SDS011;6544;51.666;6.634;2022-12-11T01:53:54;57.63;;;24.37;;
12958;SDS011;6544;51.666;6.634;2022-12-11T01:56:23;58.07;;;24.60;;
12958;SDS011;6544;51.666;6.634;2022-12-11T01:58:51;58.60;;;23.37;;
12958;SDS011;6544;51.666;6.634;2022-12-11T02:01:24;52.47;;;23.03;;
12958;SDS011;6544;51.666;6.634;2022-12-11T02:03:57;50.57;;;22.30;;
12958;SDS011;6544;51.666;6.634;2022-12-11T02:06:31;58.10;;;25.03;;
12958;SDS011;6544;51.666;6.634;2022-12-11T02:09:00;59.40;;;25.37;;
12958;SDS011;6544;51.666;6.634;2022-12-11T02:11:31;57.23;;;24.43;;
12958;SDS011;6544;51.666;6.634;2022-12-11T02:14:07;63.50;;;25.43;;
12958;SDS011;6544;51.666;6.634;2022-12-11T02:16:40;64.53;;;25.77;;
12958;SDS011;6544;51.666;6.634;2022-12-11T02:19:17;61.23;;;25.97;;
12958;SDS011;6544;51.666;6.634;2022-12-11T02:21:53;64.63;;;26.10;;
12958;SDS011;6544;51.666;6.634;2022-12-11T02:24:24;63.60;;;26.27;;
12958;SDS011;6544;51.666;6.634;2022-12-11T02:27:13;67.03;;;25.80;;
12958;SDS011;6544;51.666;6.634;2022-12-11T02:29:50;66.80;;;26.13;;
12958;SDS011;6544;51.666;6.634;2022-12-11T02:32:25;73.77;;;26.90;;
12958;SDS011;6544;51.666;6.634;2022-12-11T02:34:59;71.83;;;26.90;;
12958;SDS011;6544;51.666;6.634;2022-12-11T02:37:32;69.80;;;28.07;;
12958;SDS011;6544;51.666;6.634;2022-12-11T02:40:02;76.20;;;27.97;;
12958;SDS011;6544;51.666;6.634;2022-12-11T02:42:33;75.60;;;28.97;;
12958;SDS011;6544;51.666;6.634;2022-12-11T02:45:04;73.47;;;26.63;;
12958;SDS011;6544;51.666;6.634;2022-12-11T02:47:34;73.40;;;27.77;;
12958;SDS011;6544;51.666;6.634;2022-12-11T02:50:05;76.53;;;27.77;;
12958;SDS011;6544;51.666;6.634;2022-12-11T02:52:36;69.43;;;25.77;;
12958;SDS011;6544;51.666;6.634;2022-12-11T02:55:06;79.27;;;27.80;;
12958;SDS011;6544;51.666;6.634;2022-12-11T02:57:38;69.67;;;26.67;;
12958;SDS011;6544;51.666;6.634;2022-12-11T03:00:11;71.00;;;26.60;;
12958;SDS011;6544;51.666;6.634;2022-12-11T03:02:38;75.07;;;26.13;;
12958;SDS011;6544;51.666;6.634;2022-12-11T03:05:07;67.97;;;26.13;;
12958;SDS011;6544;51.666;6.634;2022-12-11T03:07:37;68.87;;;26.27;;
12958;SDS011;6544;51.666;6.634;2022-12-11T03:10:06;68.83;;;26.87;;
12958;SDS011;6544;51.666;6.634;2022-12-11T03:12:35;73.97;;;26.57;;
12958;SDS011;6544;51.666;6.634;2022-12-11T03:15:05;69.80;;;27.07;;
12958;SDS011;6544;51.666;6.634;2022-12-11T03:17:37;67.63;;;25.20;;
12958;SDS011;6544;51.666;6.634;2022-12-11T03:20:11;67.07;;;26.07;;
12958;SDS011;6544;51.666;6.634;2022-12-11T03:22:47;74.07;;;25.63;;
12958;SDS011;6544;51.666;6.634;2022-12-11T03:25:23;77.93;;;26.97;;
12958;SDS011;6544;51.666;6.634;2022-12-11T03:27:56;78.37;;;28.20;;
12958;SDS011;6544;51.666;6.634;2022-12-11T03:30:27;71.60;;;26.53;;
12958;SDS011;6544;51.666;6.634;2022-12-11T03:32:59;77.80;;;27.43;;
12958;SDS011;6544;51.666;6.634;2022-12-11T03:35:29;83.70;;;29.10;;
12958;SDS011;6544;51.666;6.634;2022-12-11T03:38:00;73.93;;;27.70;;
12958;SDS011;6544;51.666;6.634;2022-12-11T03:40:31;82.40;;;28.63;;
12958;SDS011;6544;51.666;6.634;2022-12-11T03:43:00;79.90;;;29.10;;
12958;SDS011;6544;51.666;6.634;2022-12-11T03:45:30;79.03;;;28.60;;
12958;SDS011;6544;51.666;6.634;2022-12-11T03:48:00;77.40;;;29.37;;
12958;SDS011;6544;51.666;6.634;2022-12-11T03:50:29;79.90;;;28.43;;
12958;SDS011;6544;51.666;6.634;2022-12-11T03:52:57;86.80;;;29.47;;
12958;SDS011;6544;51.666;6.634;2022-12-11T03:55:26;87.87;;;31.03;;
12958;SDS011;6544;51.666;6.634;2022-12-11T03:57:54;91.27;;;31.97;;
12958;SDS011;6544;51.666;6.634;2022-12-11T04:00:21;81.73;;;30.03;;
12958;SDS011;6544;51.666;6.634;2022-12-11T04:02:48;87.97;;;30.53;;
12958;SDS011;6544;51.666;6.634;2022-12-11T04:05:31;79.10;;;29.73;;
12958;SDS011;6544;51.666;6.634;2022-12-11T04:07:58;82.50;;;30.27;;
12958;SDS011;6544;51.666;6.634;2022-12-11T04:10:25;77.57;;;29.50;;
12958;SDS011;6544;51.666;6.634;2022-12-11T04:12:52;81.63;;;30.27;;
12958;SDS011;6544;51.666;6.634;2022-12-11T04:15:18;81.53;;;29.50;;
12958;SDS011;6544;51.666;6.634;2022-12-11T04:17:44;81.37;;;32.43;;
12958;SDS011;6544;51.666;6.634;2022-12-11T04:20:28;78.70;;;31.43;;
12958;SDS011;6544;51.666;6.634;2022-12-11T04:23:15;86.50;;;31.10;;
12958;SDS011;6544;51.666;6.634;2022-12-11T04:26:04;82.57;;;31.37;;
12958;SDS011;6544;51.666;6.634;2022-12-11T04:28:31;79.10;;;31.80;;
12958;SDS011;6544;51.666;6.634;2022-12-11T04:30:59;81.77;;;31.77;;
12958;SDS011;6544;51.666;6.634;2022-12-11T04:33:26;80.33;;;32.07;;
12958;SDS011;6544;51.666;6.634;2022-12-11T04:35:56;93.27;;;33.77;;
12958;SDS011;6544;51.666;6.634;2022-12-11T04:38:24;87.53;;;32.47;;
12958;SDS011;6544;51.666;6.634;2022-12-11T04:40:56;89.50;;;32.13;;
12958;SDS011;6544;51.666;6.634;2022-12-11T04:43:23;83.17;;;31.33;;
12958;SDS011;6544;51.666;6.634;2022-12-11T04:45:59;78.10;;;31.67;;
12958;SDS011;6544;51.666;6.634;2022-12-11T04:48:26;79.57;;;29.77;;
12958;SDS011;6544;51.666;6.634;2022-12-11T04:50:53;76.70;;;30.83;;
12958;SDS011;6544;51.666;6.634;2022-12-11T04:53:22;73.63;;;31.40;;
12958;SDS011;6544;51.666;6.634;2022-12-11T04:55:49;83.17;;;31.40;;
12958;SDS011;6544;51.666;6.634;2022-12-11T04:58:16;71.27;;;29.90;;
12958;SDS011;6544;51.666;6.634;2022-12-11T05:00:43;78.33;;;31.03;;
12958;SDS011;6544;51.666;6.634;2022-12-11T05:03:10;73.03;;;31.03;;
12958;SDS011;6544;51.666;6.634;2022-12-11T05:05:37;74.57;;;30.40;;
12958;SDS011;6544;51.666;6.634;2022-12-11T05:08:04;72.77;;;30.70;;
12958;SDS011;6544;51.666;6.634;2022-12-11T05:10:33;68.33;;;29.87;;
12958;SDS011;6544;51.666;6.634;2022-12-11T05:13:00;71.10;;;29.43;;
12958;SDS011;6544;51.666;6.634;2022-12-11T05:15:27;74.47;;;28.20;;
12958;SDS011;6544;51.666;6.634;2022-12-11T05:17:54;65.57;;;28.63;;
12958;SDS011;6544;51.666;6.634;2022-12-11T05:20:21;64.77;;;28.57;;
12958;SDS011;6544;51.666;6.634;2022-12-11T05:22:48;66.17;;;28.83;;
12958;SDS011;6544;51.666;6.634;2022-12-11T05:25:14;61.13;;;28.37;;
12958;SDS011;6544;51.666;6.634;2022-12-11T05:27:43;65.53;;;29.27;;
12958;SDS011;6544;51.666;6.634;2022-12-11T05:30:10;68.97;;;28.80;;
12958;SDS011;6544;51.666;6.634;2022-12-11T05:32:37;66.03;;;29.00;;
12958;SDS011;6544;51.666;6.634;2022-12-11T05:35:04;66.47;;;28.57;;
12958;SDS011;6544;51.666;6.634;2022-12-11T05:37:31;63.87;;;28.70;;
12958;SDS011;6544;51.666;6.634;2022-12-11T05:39:59;62.57;;;29.53;;
12958;SDS011;6544;51.666;6.634;2022-12-11T05:42:26;70.63;;;29.93;;
12958;SDS011;6544;51.666;6.634;2022-12-11T05:44:54;63.90;;;29.17;;
12958;SDS011;6544;51.666;6.634;2022-12-11T05:47:21;57.70;;;27.17;;
12958;SDS011;6544;51.666;6.634;2022-12-11T05:49:48;57.17;;;26.20;;
12958;SDS011;6544;51.666;6.634;2022-12-11T05:52:15;54.37;;;26.27;;
12958;SDS011;6544;51.666;6.634;2022-12-11T05:54:41;61.77;;;27.17;;
12958;SDS011;6544;51.666;6.634;2022-12-11T05:57:08;49.83;;;26.53;;
12958;SDS011;6544;51.666;6.634;2022-12-11T05:59:35;53.70;;;26.53;;
12958;SDS011;6544;51.666;6.634;2022-12-11T06:02:04;56.73;;;25.97;;
12958;SDS011;6544;51.666;6.634;2022-12-11T06:04:30;55.67;;;26.00;;
12958;SDS011;6544;51.666;6.634;2022-12-11T06:06:58;52.50;;;24.73;;
12958;SDS011;6544;51.666;6.634;2022-12-11T06:09:25;48.90;;;24.37;;
12958;SDS011;6544;51.666;6.634;2022-12-11T06:11:52;54.40;;;24.83;;
12958;SDS011;6544;51.666;6.634;2022-12-11T06:14:19;48.27;;;23.63;;
12958;SDS011;6544;51.666;6.634;2022-12-11T06:16:46;50.67;;;24.23;;
12958;SDS011;6544;51.666;6.634;2022-12-11T06:19:15;51.13;;;24.77;;
12958;SDS011;6544;51.666;6.634;2022-12-11T06:21:43;46.03;;;23.27;;
12958;SDS011;6544;51.666;6.634;2022-12-11T06:24:12;47.07;;;22.97;;
12958;SDS011;6544;51.666;6.634;2022-12-11T06:26:39;48.00;;;24.17;;
12958;SDS011;6544;51.666;6.634;2022-12-11T06:29:06;46.20;;;23.53;;
12958;SDS011;6544;51.666;6.634;2022-12-11T06:31:33;50.00;;;25.50;;
12958;SDS011;6544;51.666;6.634;2022-12-11T06:34:00;51.93;;;25.37;;
12958;SDS011;6544;51.666;6.634;2022-12-11T06:36:28;51.07;;;26.63;;
12958;SDS011;6544;51.666;6.634;2022-12-11T06:38:55;50.27;;;25.27;;
12958;SDS011;6544;51.666;6.634;2022-12-11T06:41:22;53.60;;;25.70;;
12958;SDS011;6544;51.666;6.634;2022-12-11T06:43:49;51.70;;;25.40;;
12958;SDS011;6544;51.666;6.634;2022-12-11T06:46:17;53.40;;;25.77;;
12958;SDS011;6544;51.666;6.634;2022-12-11T06:48:45;53.37;;;26.47;;
12958;SDS011;6544;51.666;6.634;2022-12-11T06:51:13;52.20;;;25.30;;
12958;SDS011;6544;51.666;6.634;2022-12-11T06:53:42;53.20;;;25.53;;
12958;SDS011;6544;51.666;6.634;2022-12-11T06:56:10;48.53;;;25.60;;
12958;SDS011;6544;51.666;6.634;2022-12-11T06:58:39;49.13;;;25.53;;
12958;SDS011;6544;51.666;6.634;2022-12-11T07:01:12;52.53;;;24.93;;
12958;SDS011;6544;51.666;6.634;2022-12-11T07:03:41;49.93;;;25.47;;
12958;SDS011;6544;51.666;6.634;2022-12-11T07:06:07;54.47;;;26.47;;
12958;SDS011;6544;51.666;6.634;2022-12-11T07:08:35;53.93;;;26.13;;
12958;SDS011;6544;51.666;6.634;2022-12-11T07:11:04;52.50;;;26.80;;
12958;SDS011;6544;51.666;6.634;2022-12-11T07:13:31;52.03;;;25.87;;
12958;SDS011;6544;51.666;6.634;2022-12-11T07:16:00;52.33;;;26.43;;
12958;SDS011;6544;51.666;6.634;2022-12-11T07:18:28;51.93;;;28.47;;
12958;SDS011;6544;51.666;6.634;2022-12-11T07:20:56;51.73;;;26.70;;
12958;SDS011;6544;51.666;6.634;2022-12-11T07:23:24;48.27;;;27.37;;
12958;SDS011;6544;51.666;6.634;2022-12-11T07:25:51;51.43;;;27.73;;
12958;SDS011;6544;51.666;6.634;2022-12-11T07:28:19;55.57;;;27.40;;
12958;SDS011;6544;51.666;6.634;2022-12-11T07:30:46;50.37;;;27.13;;
12958;SDS011;6544;51.666;6.634;2022-12-11T07:33:13;49.77;;;26.80;;
12958;SDS011;6544;51.666;6.634;2022-12-11T07:35:40;48.93;;;26.07;;
12958;SDS011;6544;51.666;6.634;2022-12-11T07:38:07;55.07;;;26.37;;
12958;SDS011;6544;51.666;6.634;2022-12-11T07:40:34;52.37;;;27.90;;
12958;SDS011;6544;51.666;6.634;2022-12-11T07:43:01;48.23;;;25.40;;
12958;SDS011;6544;51.666;6.634;2022-12-11T07:45:31;47.97;;;26.30;;
12958;SDS011;6544;51.666;6.634;2022-12-11T07:47:58;47.03;;;26.33;;
12958;SDS011;6544;51.666;6.634;2022-12-11T07:50:25;48.37;;;26.30;;
12958;SDS011;6544;51.666;6.634;2022-12-11T07:52:52;47.10;;;25.13;;
12958;SDS011;6544;51.666;6.634;2022-12-11T07:55:19;51.53;;;25.33;;
12958;SDS011;6544;51.666;6.634;2022-12-11T07:57:46;44.77;;;24.63;;
12958;SDS011;6544;51.666;6.634;2022-12-11T08:00:13;47.17;;;25.10;;
12958;SDS011;6544;51.666;6.634;2022-12-11T08:02:42;37.77;;;23.63;;
12958;SDS011;6544;51.666;6.634;2022-12-11T08:05:09;39.10;;;22.97;;
12958;SDS011;6544;51.666;6.634;2022-12-11T08:07:37;34.40;;;20.70;;
12958;SDS011;6544;51.666;6.634;2022-12-11T08:10:04;31.67;;;19.30;;
12958;SDS011;6544;51.666;6.634;2022-12-11T08:12:31;29.60;;;18.83;;
12958;SDS011;6544;51.666;6.634;2022-12-11T08:14:58;32.23;;;20.60;;
12958;SDS011;6544;51.666;6.634;2022-12-11T08:17:25;34.30;;;20.80;;
12958;SDS011;6544;51.666;6.634;2022-12-11T08:19:54;32.03;;;20.70;;
12958;SDS011;6544;51.666;6.634;2022-12-11T08:22:21;30.93;;;19.83;;
12958;SDS011;6544;51.666;6.634;2022-12-11T08:24:48;31.13;;;19.10;;
12958;SDS011;6544;51.666;6.634;2022-12-11T08:27:14;31.90;;;19.90;;
12958;SDS011;6544;51.666;6.634;2022-12-11T08:29:41;33.20;;;20.07;;
12958;SDS011;6544;51.666;6.634;2022-12-11T08:32:09;35.50;;;21.20;;
12958;SDS011;6544;51.666;6.634;2022-12-11T08:34:37;36.53;;;21.30;;
12958;SDS011;6544;51.666;6.634;2022-12-11T08:37:06;36.13;;;20.67;;
12958;SDS011;6544;51.666;6.634;2022-12-11T08:39:33;39.77;;;22.50;;
12958;SDS011;6544;51.666;6.634;2022-12-11T08:41:59;36.63;;;21.10;;
12958;SDS011;6544;51.666;6.634;2022-12-11T08:44:26;34.13;;;21.10;;
12958;SDS011;6544;51.666;6.634;2022-12-11T08:46:53;34.13;;;21.13;;
12958;SDS011;6544;51.666;6.634;2022-12-11T08:49:20;37.00;;;20.70;;
12958;SDS011;6544;51.666;6.634;2022-12-11T08:51:47;34.53;;;20.53;;
12958;SDS011;6544;51.666;6.634;2022-12-11T08:54:15;30.80;;;19.67;;
12958;SDS011;6544;51.666;6.634;2022-12-11T08:56:42;30.90;;;19.33;;
12958;SDS011;6544;51.666;6.634;2022-12-11T08:59:09;29.27;;;19.13;;
12958;SDS011;6544;51.666;6.634;2022-12-11T09:01:36;31.53;;;18.63;;
12958;SDS011;6544;51.666;6.634;2022-12-11T09:04:03;31.13;;;19.23;;
12958;SDS011;6544;51.666;6.634;2022-12-11T09:06:31;29.53;;;18.13;;
12958;SDS011;6544;51.666;6.634;2022-12-11T09:08:59;31.60;;;17.90;;
12958;SDS011;6544;51.666;6.634;2022-12-11T09:11:30;31.93;;;19.10;;
12958;SDS011;6544;51.666;6.634;2022-12-11T09:13:58;28.50;;;18.20;;
12958;SDS011;6544;51.666;6.634;2022-12-11T09:16:26;26.70;;;17.83;;
12958;SDS011;6544;51.666;6.634;2022-12-11T09:18:55;27.70;;;17.73;;
12958;SDS011;6544;51.666;6.634;2022-12-11T09:21:23;29.10;;;17.87;;
12958;SDS011;6544;51.666;6.634;2022-12-11T09:23:53;32.90;;;18.43;;
12958;SDS011;6544;51.666;6.634;2022-12-11T09:26:21;27.03;;;17.60;;
12958;SDS011;6544;51.666;6.634;2022-12-11T09:28:49;26.53;;;17.03;;
12958;SDS011;6544;51.666;6.634;2022-12-11T09:31:18;29.57;;;17.27;;
12958;SDS011;6544;51.666;6.634;2022-12-11T09:33:47;29.30;;;17.00;;
12958;SDS011;6544;51.666;6.634;2022-12-11T09:36:14;25.43;;;16.70;;
12958;SDS011;6544;51.666;6.634;2022-12-11T09:38:41;25.77;;;16.63;;
12958;SDS011;6544;51.666;6.634;2022-12-11T09:41:16;26.23;;;17.67;;
12958;SDS011;6544;51.666;6.634;2022-12-11T09:43:58;26.23;;;17.40;;
12958;SDS011;6544;51.666;6.634;2022-12-11T09:46:32;24.17;;;15.87;;
12958;SDS011;6544;51.666;6.634;2022-12-11T09:49:01;27.73;;;16.97;;
12958;SDS011;6544;51.666;6.634;2022-12-11T09:51:34;23.37;;;15.10;;
12958;SDS011;6544;51.666;6.634;2022-12-11T09:54:05;27.23;;;16.20;;
12958;SDS011;6544;51.666;6.634;2022-12-11T09:56:32;24.93;;;16.07;;
12958;SDS011;6544;51.666;6.634;2022-12-11T09:59:07;26.13;;;16.60;;
12958;SDS011;6544;51.666;6.634;2022-12-11T10:01:47;24.23;;;16.60;;
12958;SDS011;6544;51.666;6.634;2022-12-11T10:04:24;27.37;;;15.87;;
12958;SDS011;6544;51.666;6.634;2022-12-11T10:07:04;26.57;;;15.33;;
12958;SDS011;6544;51.666;6.634;2022-12-11T10:09:38;22.93;;;15.30;;
12958;SDS011;6544;51.666;6.634;2022-12-11T10:12:16;26.10;;;15.80;;
12958;SDS011;6544;51.666;6.634;2022-12-11T10:14:56;25.13;;;15.63;;
12958;SDS011;6544;51.666;6.634;2022-12-11T10:17:37;31.47;;;18.83;;
12958;SDS011;6544;51.666;6.634;2022-12-11T10:20:12;25.87;;;16.33;;
12958;SDS011;6544;51.666;6.634;2022-12-11T10:22:44;25.73;;;16.33;;
12958;SDS011;6544;51.666;6.634;2022-12-11T10:25:15;26.27;;;16.23;;
12958;SDS011;6544;51.666;6.634;2022-12-11T10:27:45;28.77;;;16.03;;
12958;SDS011;6544;51.666;6.634;2022-12-11T10:30:15;23.67;;;15.17;;
12958;SDS011;6544;51.666;6.634;2022-12-11T10:32:47;26.00;;;14.87;;
12958;SDS011;6544;51.666;6.634;2022-12-11T10:35:19;27.13;;;15.97;;
12958;SDS011;6544;51.666;6.634;2022-12-11T10:37:54;26.13;;;15.70;;
12958;SDS011;6544;51.666;6.634;2022-12-11T10:40:24;25.03;;;15.50;;
12958;SDS011;6544;51.666;6.634;2022-12-11T10:42:56;27.67;;;15.87;;
12958;SDS011;6544;51.666;6.634;2022-12-11T10:45:24;24.50;;;15.43;;
12958;SDS011;6544;51.666;6.634;2022-12-11T10:48:00;24.83;;;15.43;;
12958;SDS011;6544;51.666;6.634;2022-12-11T10:50:28;27.53;;;15.77;;
12958;SDS011;6544;51.666;6.634;2022-12-11T10:52:55;23.53;;;14.80;;
12958;SDS011;6544;51.666;6.634;2022-12-11T10:55:23;23.67;;;14.70;;
12958;SDS011;6544;51.666;6.634;2022-12-11T10:57:53;21.20;;;13.63;;
12958;SDS011;6544;51.666;6.634;2022-12-11T11:00:29;20.77;;;13.50;;
12958;SDS011;6544;51.666;6.634;2022-12-11T11:02:59;21.43;;;13.77;;
12958;SDS011;6544;51.666;6.634;2022-12-11T11:05:28;21.43;;;13.50;;
12958;SDS011;6544;51.666;6.634;2022-12-11T11:08:02;22.50;;;13.50;;
12958;SDS011;6544;51.666;6.634;2022-12-11T11:10:48;24.90;;;15.27;;
12958;SDS011;6544;51.666;6.634;2022-12-11T11:13:17;27.87;;;14.90;;
12958;SDS011;6544;51.666;6.634;2022-12-11T11:15:48;26.60;;;15.47;;
12958;SDS011;6544;51.666;6.634;2022-12-11T11:18:23;24.23;;;15.70;;
12958;SDS011;6544;51.666;6.634;2022-12-11T11:20:52;23.57;;;15.00;;
12958;SDS011;6544;51.666;6.634;2022-12-11T11:23:20;21.87;;;14.37;;
12958;SDS011;6544;51.666;6.634;2022-12-11T11:25:50;25.70;;;15.43;;
12958;SDS011;6544;51.666;6.634;2022-12-11T11:28:18;24.57;;;15.60;;
12958;SDS011;6544;51.666;6.634;2022-12-11T11:31:02;22.83;;;15.07;;
12958;SDS011;6544;51.666;6.634;2022-12-11T11:33:31;24.97;;;15.13;;
12958;SDS011;6544;51.666;6.634;2022-12-11T11:36:01;27.50;;;18.53;;
12958;SDS011;6544;51.666;6.634;2022-12-11T11:38:30;24.93;;;16.30;;
12958;SDS011;6544;51.666;6.634;2022-12-11T11:41:07;21.30;;;14.67;;
12958;SDS011;6544;51.666;6.634;2022-12-11T11:43:42;26.20;;;15.93;;
12958;SDS011;6544;51.666;6.634;2022-12-11T11:46:14;25.73;;;15.37;;
12958;SDS011;6544;51.666;6.634;2022-12-11T11:48:49;25.00;;;15.27;;
12958;SDS011;6544;51.666;6.634;2022-12-11T11:51:23;22.60;;;15.33;;
12958;SDS011;6544;51.666;6.634;2022-12-11T11:53:55;21.07;;;14.07;;
12958;SDS011;6544;51.666;6.634;2022-12-11T11:56:26;21.97;;;14.53;;
12958;SDS011;6544;51.666;6.634;2022-12-11T11:59:00;19.53;;;13.67;;
12958;SDS011;6544;51.666;6.634;2022-12-11T12:01:33;26.83;;;16.97;;
12958;SDS011;6544;51.666;6.634;2022-12-11T12:04:01;25.10;;;16.17;;
12958;SDS011;6544;51.666;6.634;2022-12-11T12:06:32;19.97;;;13.83;;
12958;SDS011;6544;51.666;6.634;2022-12-11T12:09:13;20.23;;;13.93;;
12958;SDS011;6544;51.666;6.634;2022-12-11T12:11:53;21.60;;;13.03;;
12958;SDS011;6544;51.666;6.634;2022-12-11T12:14:29;18.10;;;11.00;;
12958;SDS011;6544;51.666;6.634;2022-12-11T12:17:03;15.63;;;9.83;;
12958;SDS011;6544;51.666;6.634;2022-12-11T12:24:25;14.57;;;10.10;;
12958;SDS011;6544;51.666;6.634;2022-12-11T12:26:16;16.93;;;10.43;;
12958;SDS011;6544;51.666;6.634;2022-12-11T12:28:50;15.50;;;10.13;;
12958;SDS011;6544;51.666;6.634;2022-12-11T12:31:42;15.37;;;10.67;;
12958;SDS011;6544;51.666;6.634;2022-12-11T12:34:30;17.57;;;12.10;;
12958;SDS011;6544;51.666;6.634;2022-12-11T12:37:09;16.63;;;11.27;;
12958;SDS011;6544;51.666;6.634;2022-12-11T12:40:25;18.33;;;12.23;;
12958;SDS011;6544;51.666;6.634;2022-12-11T12:42:57;20.20;;;13.87;;
12958;SDS011;6544;51.666;6.634;2022-12-11T12:45:33;16.83;;;12.40;;
12958;SDS011;6544;51.666;6.634;2022-12-11T12:48:07;16.33;;;12.30;;
12958;SDS011;6544;51.666;6.634;2022-12-11T12:50:37;18.37;;;13.00;;
12958;SDS011;6544;51.666;6.634;2022-12-11T12:53:08;19.67;;;13.43;;
12958;SDS011;6544;51.666;6.634;2022-12-11T12:55:39;20.57;;;13.43;;
12958;SDS011;6544;51.666;6.634;2022-12-11T12:58:07;19.73;;;13.57;;
12958;SDS011;6544;51.666;6.634;2022-12-11T13:00:51;20.30;;;13.30;;
12958;SDS011;6544;51.666;6.634;2022-12-11T13:03:19;18.47;;;12.90;;
12958;SDS011;6544;51.666;6.634;2022-12-11T13:05:55;21.23;;;13.17;;
12958;SDS011;6544;51.666;6.634;2022-12-11T13:08:24;18.90;;;12.80;;
12958;SDS011;6544;51.666;6.634;2022-12-11T13:11:00;21.30;;;13.13;;
12958;SDS011;6544;51.666;6.634;2022-12-11T13:13:32;20.57;;;13.57;;
12958;SDS011;6544;51.666;6.634;2022-12-11T13:16:05;24.23;;;15.23;;
12958;SDS011;6544;51.666;6.634;2022-12-11T13:18:34;19.63;;;13.30;;
12958;SDS011;6544;51.666;6.634;2022-12-11T13:23:51;19.27;;;13.70;;
12958;SDS011;6544;51.666;6.634;2022-12-11T13:26:26;23.30;;;14.47;;
12958;SDS011;6544;51.666;6.634;2022-12-11T13:28:54;23.50;;;14.77;;
12958;SDS011;6544;51.666;6.634;2022-12-11T13:31:25;23.00;;;14.30;;
12958;SDS011;6544;51.666;6.634;2022-12-11T13:33:57;22.10;;;14.50;;
12958;SDS011;6544;51.666;6.634;2022-12-11T13:36:35;21.63;;;14.23;;
12958;SDS011;6544;51.666;6.634;2022-12-11T13:39:04;19.03;;;13.43;;
12958;SDS011;6544;51.666;6.634;2022-12-11T13:41:35;21.67;;;13.93;;
12958;SDS011;6544;51.666;6.634;2022-12-11T13:44:03;18.23;;;13.07;;
12958;SDS011;6544;51.666;6.634;2022-12-11T13:46:33;22.83;;;14.17;;
12958;SDS011;6544;51.666;6.634;2022-12-11T13:49:02;22.97;;;14.67;;
12958;SDS011;6544;51.666;6.634;2022-12-11T13:51:31;19.10;;;13.67;;
12958;SDS011;6544;51.666;6.634;2022-12-11T13:56:56;26.20;;;15.60;;
12958;SDS011;6544;51.666;6.634;2022-12-11T13:59:27;23.63;;;14.60;;
12958;SDS011;6544;51.666;6.634;2022-12-11T14:01:57;19.40;;;14.57;;
12958;SDS011;6544;51.666;6.634;2022-12-11T14:04:28;23.87;;;15.37;;
12958;SDS011;6544;51.666;6.634;2022-12-11T14:06:56;22.53;;;15.63;;
12958;SDS011;6544;51.666;6.634;2022-12-11T14:09:25;21.13;;;13.70;;
12958;SDS011;6544;51.666;6.634;2022-12-11T14:11:53;23.80;;;15.03;;
12958;SDS011;6544;51.666;6.634;2022-12-11T14:14:23;22.90;;;14.47;;
12958;SDS011;6544;51.666;6.634;2022-12-11T14:17:05;22.00;;;14.63;;
12958;SDS011;6544;51.666;6.634;2022-12-11T14:19:38;25.73;;;17.33;;
12958;SDS011;6544;51.666;6.634;2022-12-11T14:22:15;22.00;;;15.27;;
12958;SDS011;6544;51.666;6.634;2022-12-11T14:24:49;23.20;;;15.33;;
12958;SDS011;6544;51.666;6.634;2022-12-11T14:27:34;22.43;;;16.07;;
12958;SDS011;6544;51.666;6.634;2022-12-11T14:30:08;21.00;;;15.30;;
12958;SDS011;6544;51.666;6.634;2022-12-11T14:32:37;22.33;;;15.77;;
12958;SDS011;6544;51.666;6.634;2022-12-11T14:35:17;22.33;;;15.97;;
12958;SDS011;6544;51.666;6.634;2022-12-11T14:37:49;22.63;;;15.33;;
12958;SDS011;6544;51.666;6.634;2022-12-11T14:40:19;24.13;;;16.03;;
12958;SDS011;6544;51.666;6.634;2022-12-11T14:42:49;23.27;;;16.27;;
12958;SDS011;6544;51.666;6.634;2022-12-11T14:45:20;23.60;;;15.63;;
12958;SDS011;6544;51.666;6.634;2022-12-11T14:47:50;23.50;;;16.13;;
12958;SDS011;6544;51.666;6.634;2022-12-11T14:50:20;22.67;;;17.53;;
12958;SDS011;6544;51.666;6.634;2022-12-11T14:52:52;25.97;;;16.77;;
12958;SDS011;6544;51.666;6.634;2022-12-11T14:55:24;25.53;;;17.23;;
12958;SDS011;6544;51.666;6.634;2022-12-11T14:57:55;27.03;;;17.07;;
12958;SDS011;6544;51.666;6.634;2022-12-11T15:00:25;26.03;;;16.67;;
12958;SDS011;6544;51.666;6.634;2022-12-11T15:02:57;26.57;;;17.33;;